Time,TemperatureF,DewpointF,PressureIn,WindDirection,WindDirectionDegrees,WindSpeedMPH,WindSpeedGustMPH,Humidity,HourlyPrecipIn,Conditions,Clouds,dailyrainin,SoftwareType,DateUTC
2013-03-16 00:03:00,34.0,24.0,29.74,West,281,2.0,-999.0,66,-99.99,,,-99.99,,2013-03-16 04:03:00,
2013-03-16 00:13:00,34.0,24.0,29.74,West,281,2.0,-999.0,66,-99.99,,,-99.99,,2013-03-16 04:13:00,
2013-03-16 00:23:00,33.0,23.0,29.75,West,259,0.0,-999.0,67,-99.99,,,-99.99,,2013-03-16 04:23:00,
2013-03-16 00:33:00,33.0,23.0,29.75,NW,320,1.0,-999.0,67,-99.99,,,-99.99,,2013-03-16 04:33:00,
2013-03-16 00:43:00,33.0,23.0,29.75,NW,320,1.0,-999.0,67,-99.99,,,-99.99,,2013-03-16 04:43:00,
2013-03-16 00:52:00,33.0,23.0,29.75,West,278,1.0,-999.0,67,-99.99,,,-99.99,,2013-03-16 04:52:00,
2013-03-16 01:02:00,32.0,23.0,29.76,West,271,0.0,-999.0,69,-99.99,,,-99.99,,2013-03-16 05:02:00,
2013-03-16 01:12:00,32.0,23.0,29.76,West,271,0.0,-999.0,69,-99.99,,,-99.99,,2013-03-16 05:12:00,
2013-03-16 01:22:00,32.0,23.0,29.76,West,278,0.0,-999.0,69,-99.99,,,-99.99,,2013-03-16 05:22:00,
2013-03-16 01:32:00,33.0,24.0,29.77,NNE,31,2.0,-999.0,68,-99.99,,,-99.99,,2013-03-16 05:32:00,
2013-03-16 01:42:00,33.0,24.0,29.77,NNE,31,2.0,-999.0,68,-99.99,,,-99.99,,2013-03-16 05:42:00,
2013-03-16 01:52:00,33.0,25.0,29.77,NNW,345,6.0,-999.0,73,-99.99,,,-99.99,,2013-03-16 05:52:00,
2013-03-16 02:02:00,33.0,26.0,29.78,ENE,59,3.0,-999.0,74,-99.99,,,-99.99,,2013-03-16 06:02:00,
2013-03-16 02:12:00,33.0,26.0,29.78,ENE,59,3.0,-999.0,74,-99.99,,,-99.99,,2013-03-16 06:12:00,
2013-03-16 02:22:00,32.0,24.0,29.78,North,354,4.0,-999.0,73,-99.99,,,-99.99,,2013-03-16 06:22:00,
2013-03-16 02:32:00,33.0,25.0,29.78,North,10,3.0,-999.0,72,-99.99,,,-99.99,,2013-03-16 06:32:00,
2013-03-16 02:42:00,33.0,25.0,29.78,North,10,3.0,-999.0,72,-99.99,,,-99.99,,2013-03-16 06:42:00,
2013-03-16 02:52:00,33.0,25.0,29.78,North,10,3.0,-999.0,72,-99.99,,,-99.99,,2013-03-16 06:52:00,
2013-03-16 03:02:00,32.0,22.0,29.78,NNE,32,5.0,-999.0,65,-99.99,,,-99.99,,2013-03-16 07:02:00,
2013-03-16 03:12:00,32.0,22.0,29.78,NNE,32,5.0,-999.0,65,-99.99,,,-99.99,,2013-03-16 07:12:00,
2013-03-16 03:22:00,32.0,20.0,29.79,NE,37,7.0,-999.0,62,-99.99,,,-99.99,,2013-03-16 07:22:00,
2013-03-16 03:32:00,32.0,20.0,29.79,NE,35,5.0,-999.0,60,-99.99,,,-99.99,,2013-03-16 07:32:00,
2013-03-16 03:42:00,32.0,20.0,29.79,NE,35,5.0,-999.0,60,-99.99,,,-99.99,,2013-03-16 07:42:00,
2013-03-16 03:52:00,32.0,20.0,29.80,NE,40,3.0,-999.0,60,-99.99,,,-99.99,,2013-03-16 07:52:00,
2013-03-16 04:03:00,31.0,18.0,29.80,NNE,33,4.0,-999.0,58,-99.99,,,-99.99,,2013-03-16 08:03:00,
2013-03-16 04:12:00,31.0,18.0,29.80,NNE,33,4.0,-999.0,58,-99.99,,,-99.99,,2013-03-16 08:12:00,
2013-03-16 04:23:00,31.0,18.0,29.80,NNW,348,4.0,-999.0,59,-99.99,,,-99.99,,2013-03-16 08:23:00,
2013-03-16 04:33:00,31.0,18.0,29.80,WNW,293,5.0,-999.0,58,-99.99,,,-99.99,,2013-03-16 08:33:00,
2013-03-16 04:42:00,31.0,18.0,29.80,WNW,293,5.0,-999.0,58,-99.99,,,-99.99,,2013-03-16 08:42:00,
2013-03-16 04:52:00,30.0,17.0,29.81,North,359,3.0,-999.0,59,-99.99,,,-99.99,,2013-03-16 08:52:00,
2013-03-16 05:02:00,30.0,18.0,29.82,North,349,4.0,-999.0,61,-99.99,,,-99.99,,2013-03-16 09:02:00,
2013-03-16 05:12:00,30.0,18.0,29.82,North,349,4.0,-999.0,61,-99.99,,,-99.99,,2013-03-16 09:12:00,
2013-03-16 05:22:00,30.0,19.0,29.82,NE,37,1.0,-999.0,62,-99.99,,,-99.99,,2013-03-16 09:22:00,
2013-03-16 05:33:00,29.0,18.0,29.83,North,4,5.0,-999.0,64,-99.99,,,-99.99,,2013-03-16 09:33:00,
2013-03-16 05:42:00,29.0,18.0,29.83,North,4,5.0,-999.0,64,-99.99,,,-99.99,,2013-03-16 09:42:00,
2013-03-16 05:52:00,29.0,19.0,29.83,North,354,4.0,-999.0,65,-99.99,,,-99.99,,2013-03-16 09:52:00,
2013-03-16 06:03:00,29.0,19.0,29.83,North,10,6.0,-999.0,65,-99.99,,,-99.99,,2013-03-16 10:03:00,
2013-03-16 06:12:00,29.0,19.0,29.83,North,10,6.0,-999.0,65,-99.99,,,-99.99,,2013-03-16 10:12:00,
2013-03-16 06:23:00,28.0,18.0,29.83,NNE,31,2.0,-999.0,66,-99.99,,,-99.99,,2013-03-16 10:23:00,
2013-03-16 06:32:00,28.0,18.0,29.84,NNE,33,0.0,-999.0,66,-99.99,,,-99.99,,2013-03-16 10:32:00,
2013-03-16 06:42:00,28.0,18.0,29.84,NNE,33,0.0,-999.0,66,-99.99,,,-99.99,,2013-03-16 10:42:00,
2013-03-16 06:52:00,28.0,18.0,29.84,NNE,24,0.0,-999.0,67,-99.99,,,-99.99,,2013-03-16 10:52:00,
2013-03-16 07:03:00,28.0,19.0,29.85,NNE,33,1.0,-999.0,68,-99.99,,,-99.99,,2013-03-16 11:03:00,
2013-03-16 07:12:00,28.0,19.0,29.85,NNE,33,1.0,-999.0,68,-99.99,,,-99.99,,2013-03-16 11:12:00,
2013-03-16 07:22:00,27.0,18.0,29.85,ENE,68,0.0,-999.0,69,-99.99,,,-99.99,,2013-03-16 11:22:00,
2013-03-16 07:33:00,27.0,18.0,29.85,ENE,68,0.0,-999.0,69,-99.99,,,-99.99,,2013-03-16 11:33:00,
2013-03-16 07:43:00,27.0,18.0,29.85,ENE,68,0.0,-999.0,69,-99.99,,,-99.99,,2013-03-16 11:43:00,
2013-03-16 07:52:00,27.0,18.0,29.86,ENE,68,0.0,-999.0,69,-99.99,,,-99.99,,2013-03-16 11:52:00,
2013-03-16 08:02:00,27.0,19.0,29.86,ENE,68,0.0,-999.0,70,-99.99,,,-99.99,,2013-03-16 12:02:00,
2013-03-16 08:12:00,27.0,19.0,29.86,ENE,68,0.0,-999.0,70,-99.99,,,-99.99,,2013-03-16 12:12:00,
2013-03-16 08:22:00,27.0,18.0,29.86,North,354,2.0,-999.0,67,-99.99,,,-99.99,,2013-03-16 12:22:00,
2013-03-16 08:32:00,27.0,17.0,29.86,NNE,25,2.0,-999.0,65,-99.99,,,-99.99,,2013-03-16 12:32:00,
2013-03-16 08:42:00,27.0,17.0,29.86,NNE,25,2.0,-999.0,65,-99.99,,,-99.99,,2013-03-16 12:42:00,
2013-03-16 08:52:00,27.0,17.0,29.86,NNE,25,2.0,-999.0,65,-99.99,,,-99.99,,2013-03-16 12:52:00,
2013-03-16 09:02:00,27.0,15.0,29.87,North,8,3.0,-999.0,61,-99.99,,,-99.99,,2013-03-16 13:02:00,
2013-03-16 09:12:00,27.0,15.0,29.87,North,8,3.0,-999.0,61,-99.99,,,-99.99,,2013-03-16 13:12:00,
2013-03-16 09:22:00,28.0,16.0,29.88,NNE,23,4.0,-999.0,59,-99.99,,,-99.99,,2013-03-16 13:22:00,
2013-03-16 09:32:00,28.0,15.0,29.88,NNE,27,3.0,-999.0,58,-99.99,,,-99.99,,2013-03-16 13:32:00,
2013-03-16 09:42:00,28.0,15.0,29.88,NNE,27,3.0,-999.0,58,-99.99,,,-99.99,,2013-03-16 13:42:00,
2013-03-16 09:52:00,28.0,14.0,29.88,NNE,28,2.0,-999.0,55,-99.99,,,-99.99,,2013-03-16 13:52:00,
2013-03-16 10:03:00,29.0,14.0,29.88,NNE,18,3.0,-999.0,54,-99.99,,,-99.99,,2013-03-16 14:03:00,
2013-03-16 10:12:00,29.0,14.0,29.88,NNE,18,3.0,-999.0,54,-99.99,,,-99.99,,2013-03-16 14:12:00,
2013-03-16 10:22:00,29.0,14.0,29.87,North,4,1.0,-999.0,53,-99.99,,,-99.99,,2013-03-16 14:22:00,
2013-03-16 10:32:00,29.0,13.0,29.87,NE,39,2.0,-999.0,51,-99.99,,,-99.99,,2013-03-16 14:32:00,
2013-03-16 10:42:00,29.0,13.0,29.87,NE,39,2.0,-999.0,51,-99.99,,,-99.99,,2013-03-16 14:42:00,
2013-03-16 10:52:00,30.0,13.0,29.87,NE,35,3.0,-999.0,49,-99.99,,,-99.99,,2013-03-16 14:52:00,
2013-03-16 11:03:00,30.0,13.0,29.86,NNE,26,2.0,-999.0,48,-99.99,,,-99.99,,2013-03-16 15:03:00,
2013-03-16 11:13:00,30.0,13.0,29.86,NNE,26,2.0,-999.0,48,-99.99,,,-99.99,,2013-03-16 15:13:00,
2013-03-16 11:23:00,31.0,13.0,29.86,NE,40,2.0,-999.0,47,-99.99,,,-99.99,,2013-03-16 15:23:00,
2013-03-16 11:33:00,31.0,12.0,29.85,NE,49,5.0,-999.0,45,-99.99,,,-99.99,,2013-03-16 15:33:00,
2013-03-16 11:43:00,31.0,12.0,29.85,NE,49,5.0,-999.0,45,-99.99,,,-99.99,,2013-03-16 15:43:00,
2013-03-16 11:53:00,31.0,14.0,29.84,North,4,4.0,-999.0,48,-99.99,,,-99.99,,2013-03-16 15:53:00,
2013-03-16 12:03:00,32.0,15.0,29.84,NNE,25,1.0,-999.0,48,-99.99,,,-99.99,,2013-03-16 16:03:00,
2013-03-16 12:12:00,32.0,15.0,29.84,NNE,25,1.0,-999.0,48,-99.99,,,-99.99,,2013-03-16 16:12:00,
2013-03-16 12:23:00,34.0,16.0,29.83,NW,324,2.0,-999.0,47,-99.99,,,-99.99,,2013-03-16 16:23:00,
2013-03-16 12:33:00,34.0,15.0,29.83,NW,310,1.0,-999.0,45,-99.99,,,-99.99,,2013-03-16 16:33:00,
2013-03-16 12:42:00,34.0,15.0,29.83,NW,310,1.0,-999.0,45,-99.99,,,-99.99,,2013-03-16 16:42:00,
2013-03-16 12:53:00,35.0,15.0,29.83,NW,310,1.0,-999.0,44,-99.99,,,-99.99,,2013-03-16 16:53:00,
2013-03-16 13:03:00,35.0,15.0,29.81,NNE,24,1.0,-999.0,44,-99.99,,,-99.99,,2013-03-16 17:03:00,
2013-03-16 13:13:00,35.0,15.0,29.81,NNE,24,1.0,-999.0,44,-99.99,,,-99.99,,2013-03-16 17:13:00,
2013-03-16 13:23:00,36.0,15.0,29.82,NNW,339,2.0,-999.0,42,-99.99,,,-99.99,,2013-03-16 17:23:00,
2013-03-16 13:33:00,36.0,15.0,29.82,North,354,0.0,-999.0,41,-99.99,,,-99.99,,2013-03-16 17:33:00,
2013-03-16 13:42:00,36.0,15.0,29.82,North,354,0.0,-999.0,41,-99.99,,,-99.99,,2013-03-16 17:42:00,
2013-03-16 13:52:00,36.0,11.0,29.82,West,278,1.0,-999.0,35,-99.99,,,-99.99,,2013-03-16 17:52:00,
2013-03-16 14:03:00,36.0,12.0,29.82,NNE,12,0.0,-999.0,37,-99.99,,,-99.99,,2013-03-16 18:03:00,
2013-03-16 14:13:00,36.0,12.0,29.82,NNE,12,0.0,-999.0,37,-99.99,,,-99.99,,2013-03-16 18:13:00,
2013-03-16 14:23:00,37.0,16.0,29.81,NNE,31,2.0,-999.0,42,-99.99,,,-99.99,,2013-03-16 18:23:00,
2013-03-16 14:33:00,36.0,15.0,29.80,NNE,23,1.0,-999.0,41,-99.99,,,-99.99,,2013-03-16 18:33:00,
2013-03-16 14:43:00,36.0,15.0,29.80,NNE,23,1.0,-999.0,41,-99.99,,,-99.99,,2013-03-16 18:43:00,
2013-03-16 14:52:00,35.0,15.0,29.80,NNE,18,2.0,-999.0,43,-99.99,,,-99.99,,2013-03-16 18:52:00,
2013-03-16 15:02:00,35.0,18.0,29.80,NW,312,1.0,-999.0,49,-99.99,,,-99.99,,2013-03-16 19:02:00,
2013-03-16 15:12:00,35.0,18.0,29.80,NW,312,1.0,-999.0,49,-99.99,,,-99.99,,2013-03-16 19:12:00,
2013-03-16 15:22:00,35.0,19.0,29.81,NNE,18,0.0,-999.0,51,-99.99,,,-99.99,,2013-03-16 19:22:00,
2013-03-16 15:33:00,36.0,20.0,29.81,NE,40,0.0,-999.0,51,-99.99,,,-99.99,,2013-03-16 19:33:00,
2013-03-16 15:42:00,36.0,20.0,29.81,NE,40,0.0,-999.0,51,-99.99,,,-99.99,,2013-03-16 19:42:00,
2013-03-16 15:52:00,36.0,20.0,29.80,NNW,332,2.0,-999.0,52,-99.99,,,-99.99,,2013-03-16 19:52:00,
2013-03-16 16:02:00,36.0,21.0,29.80,NW,308,1.0,-999.0,54,-99.99,,,-99.99,,2013-03-16 20:02:00,
2013-03-16 16:12:00,36.0,21.0,29.80,NW,308,1.0,-999.0,54,-99.99,,,-99.99,,2013-03-16 20:12:00,
2013-03-16 16:22:00,36.0,21.0,29.80,West,280,1.0,-999.0,54,-99.99,,,-99.99,,2013-03-16 20:22:00,
2013-03-16 16:33:00,36.0,22.0,29.79,WNW,283,1.0,-999.0,56,-99.99,,,-99.99,,2013-03-16 20:33:00,
2013-03-16 16:42:00,36.0,22.0,29.79,WNW,283,1.0,-999.0,56,-99.99,,,-99.99,,2013-03-16 20:42:00,
2013-03-16 16:52:00,35.0,22.0,29.79,WSW,248,1.0,-999.0,58,-99.99,,,-99.99,,2013-03-16 20:52:00,
2013-03-16 17:02:00,34.0,22.0,29.78,WSW,251,0.0,-999.0,60,-99.99,,,-99.99,,2013-03-16 21:02:00,
2013-03-16 17:12:00,34.0,22.0,29.78,WSW,251,0.0,-999.0,60,-99.99,,,-99.99,,2013-03-16 21:12:00,
2013-03-16 17:22:00,34.0,22.0,29.78,WSW,258,1.0,-999.0,61,-99.99,,,-99.99,,2013-03-16 21:22:00,
2013-03-16 17:33:00,34.0,22.0,29.78,WNW,295,1.0,-999.0,61,-99.99,,,-99.99,,2013-03-16 21:33:00,
2013-03-16 17:43:00,34.0,22.0,29.78,WNW,295,1.0,-999.0,61,-99.99,,,-99.99,,2013-03-16 21:43:00,
2013-03-16 17:52:00,34.0,22.0,29.78,WNW,289,0.0,-999.0,62,-99.99,,,-99.99,,2013-03-16 21:52:00,
2013-03-16 18:03:00,33.0,23.0,29.80,West,271,1.0,-999.0,65,-99.99,,,-99.99,,2013-03-16 22:03:00,
2013-03-16 18:13:00,33.0,23.0,29.80,West,271,1.0,-999.0,65,-99.99,,,-99.99,,2013-03-16 22:13:00,
2013-03-16 18:23:00,32.0,24.0,29.79,WSW,242,1.0,-999.0,71,-99.99,,,-99.99,,2013-03-16 22:23:00,
2013-03-16 18:33:00,32.0,25.0,29.80,SW,236,0.0,-999.0,74,-99.99,,,-99.99,,2013-03-16 22:33:00,
2013-03-16 18:42:00,32.0,25.0,29.80,SW,236,0.0,-999.0,74,-99.99,,,-99.99,,2013-03-16 22:42:00,
2013-03-16 18:52:00,31.0,24.0,29.80,WSW,258,1.0,-999.0,76,-99.99,,,-99.99,,2013-03-16 22:52:00,
2013-03-16 19:02:00,31.0,26.0,29.81,WSW,251,1.0,-999.0,80,-99.99,,,-99.99,,2013-03-16 23:02:00,
2013-03-16 19:13:00,31.0,26.0,29.81,WSW,251,1.0,-999.0,80,-99.99,,,-99.99,,2013-03-16 23:13:00,
2013-03-16 19:23:00,30.0,25.0,29.81,SW,236,1.0,-999.0,83,-99.99,,,-99.99,,2013-03-16 23:23:00,
2013-03-16 19:33:00,30.0,26.0,29.81,WSW,247,0.0,-999.0,84,-99.99,,,-99.99,,2013-03-16 23:33:00,
2013-03-16 19:42:00,30.0,26.0,29.81,WSW,247,0.0,-999.0,84,-99.99,,,-99.99,,2013-03-16 23:42:00,
2013-03-16 19:52:00,30.0,26.0,29.81,WSW,247,0.0,-999.0,85,-99.99,,,-99.99,,2013-03-16 23:52:00,
2013-03-16 20:02:00,30.0,26.0,29.82,WSW,248,0.0,-999.0,86,-99.99,,,-99.99,,2013-03-17 00:02:00,
2013-03-16 20:12:00,30.0,26.0,29.82,WSW,248,0.0,-999.0,86,-99.99,,,-99.99,,2013-03-17 00:12:00,
2013-03-16 20:22:00,30.0,26.0,29.82,WSW,248,0.0,-999.0,86,-99.99,,,-99.99,,2013-03-17 00:22:00,
2013-03-16 20:33:00,30.0,27.0,29.83,WSW,249,0.0,-999.0,87,-99.99,,,-99.99,,2013-03-17 00:33:00,
2013-03-16 20:42:00,30.0,27.0,29.83,WSW,249,0.0,-999.0,87,-99.99,,,-99.99,,2013-03-17 00:42:00,
2013-03-16 20:52:00,30.0,27.0,29.84,WSW,253,0.0,-999.0,87,-99.99,,,-99.99,,2013-03-17 00:52:00,
2013-03-16 21:02:00,30.0,27.0,29.84,WSW,253,0.0,-999.0,87,-99.99,,,-99.99,,2013-03-17 01:02:00,
2013-03-16 21:12:00,30.0,27.0,29.84,WSW,253,0.0,-999.0,87,-99.99,,,-99.99,,2013-03-17 01:12:00,
2013-03-16 21:22:00,30.0,26.0,29.85,WSW,253,0.0,-999.0,86,-99.99,,,-99.99,,2013-03-17 01:22:00,
2013-03-16 21:32:00,30.0,26.0,29.85,WSW,253,0.0,-999.0,86,-99.99,,,-99.99,,2013-03-17 01:32:00,
2013-03-16 21:42:00,30.0,26.0,29.85,WSW,253,0.0,-999.0,86,-99.99,,,-99.99,,2013-03-17 01:42:00,
2013-03-16 21:52:00,30.0,26.0,29.86,WSW,253,0.0,-999.0,86,-99.99,,,-99.99,,2013-03-17 01:52:00,
2013-03-16 22:03:00,30.0,26.0,29.86,WSW,253,0.0,-999.0,86,-99.99,,,-99.99,,2013-03-17 02:03:00,
2013-03-16 22:13:00,30.0,26.0,29.86,WSW,253,0.0,-999.0,86,-99.99,,,-99.99,,2013-03-17 02:13:00,
2013-03-16 22:22:00,30.0,26.0,29.86,West,260,1.0,-999.0,86,-99.99,,,-99.99,,2013-03-17 02:22:00,
2013-03-16 22:33:00,30.0,26.0,29.87,West,262,0.0,-999.0,86,-99.99,,,-99.99,,2013-03-17 02:33:00,
2013-03-16 22:43:00,30.0,26.0,29.87,West,262,0.0,-999.0,86,-99.99,,,-99.99,,2013-03-17 02:43:00,
2013-03-16 22:52:00,30.0,26.0,29.88,West,262,0.0,-999.0,85,-99.99,,,-99.99,,2013-03-17 02:52:00,
2013-03-16 23:03:00,30.0,26.0,29.88,West,262,0.0,-999.0,85,-99.99,,,-99.99,,2013-03-17 03:03:00,
2013-03-16 23:12:00,30.0,26.0,29.88,West,262,0.0,-999.0,85,-99.99,,,-99.99,,2013-03-17 03:12:00,
2013-03-16 23:23:00,30.0,26.0,29.89,West,272,0.0,-999.0,84,-99.99,,,-99.99,,2013-03-17 03:23:00,
2013-03-16 23:34:00,30.0,26.0,29.89,West,272,0.0,-999.0,85,-99.99,,,-99.99,,2013-03-17 03:34:00,
2013-03-16 23:43:00,30.0,26.0,29.89,West,272,0.0,-999.0,85,-99.99,,,-99.99,,2013-03-17 03:43:00,
2013-03-16 23:52:00,30.0,26.0,29.89,West,274,0.0,-999.0,84,-99.99,,,-99.99,,2013-03-17 03:52:00,